createdAt,value
2019-01-02T00:02:29.723Z,4.62
2019-01-02T00:05:00.371Z,4.69
2019-01-02T00:07:31.005Z,4.74
2019-01-02T00:10:01.774Z,4.77
2019-01-02T00:12:32.451Z,4.77
2019-01-02T00:15:03.003Z,4.72
2019-01-02T00:17:33.902Z,3.87
2019-01-02T00:20:05.803Z,2.80
2019-01-02T00:22:38.152Z,2.42
2019-01-02T00:25:09.336Z,2.39
2019-01-02T00:27:40.103Z,2.39
2019-01-02T00:30:11.109Z,2.44
2019-01-02T00:32:43.354Z,2.60
2019-01-02T00:35:15.208Z,2.86
2019-01-02T00:37:46.301Z,2.98
2019-01-02T00:40:17.281Z,3.05
2019-01-02T00:42:50.441Z,3.09
2019-01-02T00:45:22.365Z,3.21
2019-01-02T00:47:54.319Z,3.21
2019-01-02T00:50:25.365Z,3.28
2019-01-02T00:52:58.297Z,3.39
2019-01-02T00:55:29.128Z,3.43
2019-01-02T00:57:59.811Z,3.56
2019-01-02T01:00:31.514Z,3.56
2019-01-02T01:03:04.140Z,3.56
2019-01-02T01:05:37.216Z,3.70
2019-01-02T01:08:08.280Z,3.70
2019-01-02T01:10:39.473Z,3.58
2019-01-02T01:13:10.253Z,3.60
2019-01-02T01:15:43.570Z,3.60
2019-01-02T01:18:14.418Z,3.67
2019-01-02T01:20:45.225Z,3.70
2019-01-02T01:23:18.417Z,3.68
2019-01-02T01:25:49.217Z,3.77
2019-01-02T01:28:20.406Z,3.85
2019-01-02T01:30:51.354Z,3.87
2019-01-02T01:33:22.436Z,3.87
2019-01-02T01:35:55.436Z,3.93
2019-01-02T01:38:26.342Z,4.01
2019-01-02T01:40:57.473Z,4.01
2019-01-02T01:43:28.123Z,3.97
2019-01-02T01:45:59.628Z,3.92
2019-01-02T01:48:32.429Z,3.92
2019-01-02T01:51:05.982Z,3.92
2019-01-02T01:53:37.478Z,3.90
2019-01-02T01:56:09.788Z,3.86
2019-01-02T01:58:40.678Z,3.95
2019-01-02T02:01:12.320Z,3.95
2019-01-02T02:03:44.783Z,3.81
2019-01-02T02:06:18.042Z,3.83
2019-01-02T02:08:49.115Z,3.84
2019-01-02T02:11:19.483Z,3.79
2019-01-02T02:13:50.413Z,3.83
2019-01-02T02:16:21.186Z,3.78
2019-01-02T02:18:52.083Z,3.85
2019-01-02T02:21:22.491Z,3.85
2019-01-02T02:23:53.557Z,3.85
2019-01-02T02:26:24.523Z,3.94
2019-01-02T02:28:54.921Z,3.91
2019-01-02T02:31:25.474Z,3.91
2019-01-02T02:33:56.435Z,3.83
2019-01-02T02:36:27.213Z,3.92
2019-01-02T02:38:59.598Z,3.90
2019-01-02T02:41:31.649Z,3.87
2019-01-02T02:44:04.789Z,3.87
2019-01-02T02:46:35.663Z,3.94
2019-01-02T02:49:06.664Z,3.90
2019-01-02T02:51:39.814Z,3.83
2019-01-02T02:54:10.784Z,3.83
2019-01-02T02:56:43.754Z,3.86
2019-01-02T02:59:14.853Z,3.78
2019-01-02T03:01:47.773Z,3.70
2019-01-02T03:04:18.666Z,3.78
2019-01-02T03:06:49.311Z,3.73
2019-01-02T03:09:19.973Z,3.72
2019-01-02T03:11:50.310Z,3.74
2019-01-02T03:14:20.726Z,3.70
2019-01-02T03:16:51.463Z,3.66
2019-01-02T03:19:22.227Z,3.59
2019-01-02T03:21:54.513Z,3.67
2019-01-02T03:24:25.841Z,3.64
2019-01-02T03:26:56.728Z,3.61
2019-01-02T03:29:27.150Z,3.61
2019-01-02T03:31:57.802Z,3.66
2019-01-02T03:34:28.951Z,3.62
2019-01-02T03:36:59.833Z,3.61
2019-01-02T03:39:32.880Z,3.61
2019-01-02T03:42:03.812Z,3.59
2019-01-02T03:44:34.948Z,3.54
2019-01-02T03:47:07.878Z,3.61
2019-01-02T03:49:38.927Z,3.56
2019-01-02T03:52:10.039Z,3.52
2019-01-02T03:54:41.088Z,3.46
2019-01-02T03:57:14.016Z,3.46
2019-01-02T03:59:45.027Z,3.50
2019-01-02T04:02:15.977Z,3.51
2019-01-02T04:04:48.124Z,3.59
2019-01-02T04:07:20.274Z,3.52
2019-01-02T04:09:50.665Z,3.52
2019-01-02T04:12:21.103Z,3.61
2019-01-02T04:14:51.884Z,3.67
2019-01-02T04:17:22.512Z,3.67
2019-01-02T04:19:53.093Z,3.67
2019-01-02T04:22:23.487Z,3.75
2019-01-02T04:24:54.098Z,3.60
2019-01-02T04:27:27.208Z,3.73
2019-01-02T04:29:59.701Z,3.73
2019-01-02T04:32:32.218Z,3.82
2019-01-02T04:35:03.221Z,3.82
2019-01-02T04:37:34.257Z,3.81
2019-01-02T04:40:10.387Z,3.81
2019-01-02T04:42:43.051Z,3.94
2019-01-02T04:45:15.004Z,3.95
2019-01-02T04:47:45.674Z,3.93
2019-01-02T04:50:16.414Z,3.93
2019-01-02T04:52:47.283Z,3.90
2019-01-02T04:55:18.166Z,3.90
2019-01-02T04:57:48.934Z,3.92
2019-01-02T05:00:19.411Z,3.93
2019-01-02T05:02:50.895Z,3.84
2019-01-02T05:05:21.235Z,3.95
2019-01-02T05:07:51.981Z,3.94
2019-01-02T05:10:22.609Z,3.94
2019-01-02T05:12:53.058Z,3.94
2019-01-02T05:15:23.431Z,3.83
2019-01-02T05:17:54.155Z,3.83
2019-01-02T05:20:24.785Z,3.84
2019-01-02T05:22:55.333Z,3.84
2019-01-02T05:25:26.049Z,3.84
2019-01-02T05:27:56.408Z,3.85
2019-01-02T05:30:27.602Z,3.85
2019-01-02T05:32:58.105Z,3.85
2019-01-02T05:35:28.890Z,3.89
2019-01-02T05:37:59.317Z,3.91
2019-01-02T05:40:30.234Z,3.91
2019-01-02T05:43:00.930Z,3.96
2019-01-02T05:45:31.703Z,3.96
2019-01-02T05:48:02.351Z,3.96
2019-01-02T05:50:40.011Z,3.94
2019-01-02T05:53:11.766Z,3.96
2019-01-02T05:55:47.643Z,3.97
2019-01-02T05:58:20.632Z,4.01
2019-01-02T06:00:51.504Z,3.97
2019-01-02T06:03:22.490Z,4.09
2019-01-02T06:05:53.499Z,4.02
2019-01-02T06:08:23.872Z,4.01
2019-01-02T06:10:54.597Z,3.98
2019-01-02T06:13:27.718Z,4.03
2019-01-02T06:15:58.626Z,3.98
2019-01-02T06:18:29.482Z,4.00
2019-01-02T06:21:02.525Z,4.00
2019-01-02T06:23:33.843Z,3.93
2019-01-02T06:26:06.229Z,3.80
2019-01-02T06:28:37.611Z,3.85
2019-01-02T06:31:08.688Z,3.85
2019-01-02T06:33:41.625Z,3.73
2019-01-02T06:36:12.663Z,3.79
2019-01-02T06:38:43.659Z,3.79
2019-01-02T06:41:16.668Z,3.79
2019-01-02T06:43:48.004Z,3.82
2019-01-02T06:46:18.375Z,3.82
2019-01-02T06:48:49.009Z,3.79
2019-01-02T06:51:19.849Z,3.83
2019-01-02T06:53:50.573Z,3.75
2019-01-02T06:56:21.385Z,3.75
2019-01-02T06:58:52.606Z,3.68
2019-01-02T07:01:23.378Z,3.68
2019-01-02T07:03:53.896Z,3.72
2019-01-02T07:06:25.205Z,3.64
2019-01-02T07:08:55.560Z,3.71
2019-01-02T07:11:26.841Z,3.71
2019-01-02T07:13:58.845Z,3.68
2019-01-02T07:16:30.954Z,3.61
2019-01-02T07:19:04.182Z,3.60
2019-01-02T07:21:35.063Z,3.60
2019-01-02T07:24:06.166Z,3.55
2019-01-02T07:26:36.908Z,3.63
2019-01-02T07:29:08.892Z,3.55
2019-01-02T07:31:41.060Z,3.55
2019-01-02T07:34:19.555Z,3.49
2019-01-02T07:37:31.214Z,3.37
2019-01-02T07:40:37.956Z,3.32
2019-01-02T07:43:52.792Z,3.32
2019-01-02T07:46:57.798Z,3.22
2019-01-02T07:49:47.485Z,3.19
2019-01-02T07:52:53.635Z,3.12
2019-01-02T07:55:59.614Z,3.12
2019-01-02T07:59:08.191Z,3.08
2019-01-02T08:02:33.134Z,2.98
2019-01-02T08:05:29.989Z,2.97
2019-01-02T08:08:32.751Z,2.96
2019-01-02T08:11:31.910Z,3.04
2019-01-02T08:14:36.144Z,3.06
2019-01-02T08:17:39.470Z,3.14
2019-01-02T08:20:51.597Z,3.19
2019-01-02T08:23:53.232Z,3.19
2019-01-02T08:27:03.268Z,3.17
2019-01-02T08:30:24.100Z,3.22
2019-01-02T08:33:29.048Z,3.26
2019-01-02T08:36:40.864Z,3.32
2019-01-02T08:39:57.065Z,3.41
2019-01-02T08:43:16.349Z,3.44
2019-01-02T08:46:25.063Z,3.53
2019-01-02T08:49:23.942Z,3.64
2019-01-02T08:52:37.320Z,3.65
2019-01-02T08:56:01.738Z,3.65
2019-01-02T08:59:21.783Z,3.77
2019-01-02T09:02:09.390Z,3.88
2019-01-02T09:05:26.770Z,4.08
2019-01-02T09:08:54.306Z,4.18
2019-01-02T09:11:44.061Z,4.18
2019-01-02T09:14:45.015Z,4.19
2019-01-02T09:18:00.280Z,4.19
2019-01-02T09:21:24.003Z,4.53
2019-01-02T09:24:50.117Z,4.53
2019-01-02T09:27:52.432Z,4.30
2019-01-02T09:31:17.811Z,4.19
2019-01-02T09:34:29.658Z,4.32
2019-01-02T09:37:52.247Z,4.32
2019-01-02T09:41:04.104Z,4.34
2019-01-02T09:44:18.036Z,4.32
2019-01-02T09:47:37.988Z,4.32
2019-01-02T09:50:35.416Z,4.28
2019-01-02T09:53:40.578Z,4.43
2019-01-02T09:56:49.918Z,4.51
2019-01-02T09:59:58.419Z,4.54
2019-01-02T10:03:03.877Z,4.61
2019-01-02T10:06:30.228Z,4.61
2019-01-02T10:10:00.825Z,4.73
2019-01-02T10:13:09.711Z,4.75
2019-01-02T10:16:34.656Z,4.75
2019-01-02T10:19:33.404Z,4.92
2019-01-02T10:22:56.362Z,4.69
2019-01-02T10:26:16.671Z,4.55
2019-01-02T10:29:19.046Z,4.61
2019-01-02T10:32:27.774Z,4.56
2019-01-02T10:35:30.871Z,4.65
2019-01-02T10:38:46.917Z,4.60
2019-01-02T10:42:08.141Z,4.60
2019-01-02T10:45:15.007Z,4.61
2019-01-02T10:48:34.929Z,4.57
2019-01-02T10:52:00.718Z,4.57
2019-01-02T10:55:13.517Z,4.62
2019-01-02T10:58:08.474Z,4.69
2019-01-02T11:01:02.803Z,4.82
2019-01-02T11:04:24.634Z,4.81
2019-01-02T11:07:21.480Z,4.73
2019-01-02T11:10:47.439Z,4.94
2019-01-02T11:13:38.303Z,4.94
2019-01-02T11:16:43.862Z,4.69
2019-01-02T11:20:17.756Z,4.69
2019-01-02T11:23:38.539Z,4.51
2019-01-02T11:26:48.204Z,3.39
2019-01-02T11:29:57.686Z,3.39
2019-01-02T11:33:01.535Z,3.04
2019-01-02T11:36:10.268Z,2.81
2019-01-02T11:39:18.148Z,2.81
2019-01-02T11:42:16.102Z,2.95
2019-01-02T11:45:09.430Z,3.15
2019-01-02T11:48:02.519Z,3.14
2019-01-02T11:50:36.933Z,3.23
2019-01-02T11:53:17.401Z,3.19
2019-01-02T11:55:49.173Z,3.30
2019-01-02T11:58:20.304Z,3.16
2019-01-02T12:00:57.079Z,3.16
2019-01-02T12:03:29.487Z,3.20
2019-01-02T12:06:04.333Z,3.27
2019-01-02T12:08:37.076Z,3.43
2019-01-02T12:11:14.130Z,3.52
2019-01-02T12:13:51.659Z,3.59
2019-01-02T12:16:25.252Z,3.56
2019-01-02T12:19:00.001Z,3.81
2019-01-02T12:21:31.478Z,3.90
2019-01-02T12:24:09.791Z,3.99
2019-01-02T12:26:46.187Z,3.96
2019-01-02T12:29:24.346Z,3.97
2019-01-02T12:31:58.270Z,3.92
2019-01-02T12:34:35.101Z,3.99
2019-01-02T12:37:15.811Z,3.91
2019-01-02T12:39:50.113Z,4.00
2019-01-02T12:42:28.138Z,3.82
2019-01-02T12:45:06.777Z,3.74
2019-01-02T12:47:45.588Z,3.74
2019-01-02T12:50:36.863Z,3.75
2019-01-02T12:53:17.257Z,3.66
2019-01-02T12:55:53.076Z,3.68
2019-01-02T12:58:27.322Z,3.68
2019-01-02T13:01:15.564Z,3.89
2019-01-02T13:04:14.936Z,3.89
2019-01-02T13:07:28.818Z,3.86
2019-01-02T13:10:30.452Z,3.87
2019-01-02T13:14:13.892Z,3.88
2019-01-02T13:17:22.068Z,3.81
2019-01-02T13:20:34.814Z,3.93
2019-01-02T13:23:31.548Z,3.78
2019-01-02T13:26:54.787Z,3.86
2019-01-02T13:29:54.894Z,3.83
2019-01-02T13:33:04.893Z,3.83
2019-01-02T13:36:34.531Z,3.78
2019-01-02T13:39:37.803Z,3.67
2019-01-02T13:42:50.909Z,3.67
2019-01-02T13:45:51.383Z,3.72
2019-01-02T13:48:50.975Z,3.65
2019-01-02T13:51:31.020Z,3.65
2019-01-02T13:54:03.832Z,3.73
2019-01-02T13:56:37.884Z,3.73
2019-01-02T13:59:09.841Z,3.69
2019-01-02T14:01:43.466Z,3.68
2019-01-02T14:04:15.948Z,3.35
2019-01-02T14:06:50.047Z,3.35
2019-01-02T14:09:22.640Z,3.40
2019-01-02T14:11:57.423Z,3.10
2019-01-02T14:14:29.637Z,3.09
2019-01-02T14:17:02.771Z,3.07
2019-01-02T14:19:33.723Z,3.05
2019-01-02T14:22:04.234Z,3.06
2019-01-02T14:24:34.689Z,3.03
2019-01-02T14:27:05.123Z,3.11
2019-01-02T14:29:44.989Z,3.06
2019-01-02T14:32:15.885Z,3.03
2019-01-02T14:34:48.844Z,2.94
2019-01-02T14:37:21.995Z,2.96
2019-01-02T14:39:55.945Z,2.88
2019-01-02T14:42:26.561Z,2.88
2019-01-02T14:45:00.209Z,2.72
2019-01-02T14:47:31.825Z,2.58
2019-01-02T14:50:02.765Z,2.37
2019-01-02T14:52:35.897Z,2.28
2019-01-02T14:55:09.294Z,2.29
2019-01-02T14:57:40.947Z,2.34
2019-01-02T15:00:14.634Z,2.39
2019-01-02T15:02:46.930Z,2.43
2019-01-02T15:05:24.056Z,2.48
2019-01-02T15:07:56.958Z,2.48
2019-01-02T15:10:29.875Z,2.48
2019-01-02T15:13:03.765Z,2.60
2019-01-02T15:15:34.154Z,2.47
2019-01-02T15:18:04.562Z,2.45
2019-01-02T15:20:36.982Z,2.36
2019-01-02T15:23:08.075Z,2.49
2019-01-02T15:25:46.152Z,2.54
2019-01-02T15:28:23.243Z,2.59
2019-01-02T15:31:00.874Z,2.63
2019-01-02T15:33:33.038Z,2.63
2019-01-02T15:36:06.468Z,2.63
2019-01-02T15:38:43.066Z,2.62
2019-01-02T15:41:14.646Z,2.65
2019-01-02T15:43:46.079Z,2.68
2019-01-02T15:46:17.149Z,2.62
2019-01-02T15:48:48.156Z,2.56
2019-01-02T15:51:23.390Z,2.59
2019-01-02T15:54:04.970Z,2.50
2019-01-02T15:56:39.485Z,2.51
2019-01-02T15:59:12.134Z,2.60
2019-01-02T16:01:45.629Z,2.53
2019-01-02T16:04:18.667Z,2.51
2019-01-02T16:06:50.291Z,2.41
2019-01-02T16:09:23.488Z,2.41
2019-01-02T16:11:55.300Z,2.43
2019-01-02T16:14:34.983Z,2.47
2019-01-02T16:17:07.351Z,2.45
2019-01-02T16:19:40.165Z,2.51
2019-01-02T16:22:13.847Z,2.49
2019-01-02T16:24:47.573Z,2.48
2019-01-02T16:27:22.767Z,2.45
2019-01-02T16:29:54.975Z,2.45
2019-01-02T16:32:27.270Z,2.44
2019-01-02T16:34:58.197Z,2.40
2019-01-02T16:37:32.381Z,2.41
2019-01-02T16:40:12.215Z,2.41
2019-01-02T16:43:08.887Z,2.37
2019-01-02T16:45:41.476Z,2.33
2019-01-02T16:48:18.250Z,2.37
2019-01-02T16:50:49.477Z,2.32
2019-01-02T16:53:22.414Z,2.32
2019-01-02T16:55:53.623Z,2.31
2019-01-02T16:58:24.106Z,2.25
2019-01-02T17:00:54.586Z,2.26
2019-01-02T17:03:27.401Z,2.22
2019-01-02T17:05:59.379Z,2.34
2019-01-02T17:08:30.519Z,2.30
2019-01-02T17:11:03.457Z,2.26
2019-01-02T17:13:34.327Z,2.20
2019-01-02T17:16:05.137Z,2.15
2019-01-02T17:18:35.904Z,2.15
2019-01-02T17:21:06.558Z,2.17
2019-01-02T17:23:37.620Z,2.12
2019-01-02T17:26:08.418Z,2.06
2019-01-02T17:28:38.937Z,2.11
2019-01-02T17:31:10.939Z,2.06
2019-01-02T17:33:42.835Z,2.06
2019-01-02T17:36:13.510Z,2.06
2019-01-02T17:38:46.538Z,2.00
2019-01-02T17:41:18.702Z,2.06
2019-01-02T17:43:50.607Z,1.98
2019-01-02T17:46:23.814Z,1.94
2019-01-02T17:48:54.640Z,1.89
2019-01-02T17:51:26.025Z,1.89
2019-01-02T17:53:56.638Z,1.86
2019-01-02T17:56:27.546Z,1.81
2019-01-02T17:59:02.841Z,1.76
2019-01-02T18:01:34.794Z,1.76
2019-01-02T18:04:05.258Z,1.74
2019-01-02T18:06:35.623Z,1.69
2019-01-02T18:09:08.410Z,1.61
2019-01-02T18:11:39.750Z,1.63
2019-01-02T18:14:12.476Z,1.58
2019-01-02T18:16:44.728Z,1.55
2019-01-02T18:19:16.098Z,1.55
2019-01-02T18:21:46.788Z,1.56
2019-01-02T18:24:19.902Z,1.54
2019-01-02T18:26:50.866Z,1.57
2019-01-02T18:29:23.905Z,1.53
2019-01-02T18:31:55.638Z,1.51
2019-01-02T18:34:26.175Z,1.48
2019-01-02T18:36:56.806Z,1.46
2019-01-02T18:39:27.312Z,1.44
2019-01-02T18:41:57.812Z,1.42
2019-01-02T18:44:28.478Z,1.39
2019-01-02T18:46:58.873Z,1.39
2019-01-02T18:49:29.637Z,1.40
2019-01-02T18:52:00.277Z,1.39
2019-01-02T18:54:30.866Z,1.38
2019-01-02T18:57:01.569Z,1.43
2019-01-02T18:59:32.239Z,1.44
2019-01-02T19:02:02.893Z,1.37
2019-01-02T19:04:33.675Z,1.37
2019-01-02T19:07:05.713Z,1.34
2019-01-02T19:09:37.956Z,1.35
2019-01-02T19:12:10.389Z,1.34
2019-01-02T19:14:42.185Z,1.30
2019-01-02T19:17:13.081Z,1.36
2019-01-02T19:19:43.983Z,1.23
2019-01-02T19:22:16.980Z,1.24
2019-01-02T19:24:47.980Z,1.31
2019-01-02T19:27:19.011Z,1.25
2019-01-02T19:29:50.099Z,1.26
2019-01-02T19:32:21.144Z,1.33
2019-01-02T19:34:52.166Z,1.31
2019-01-02T19:37:24.065Z,1.33
2019-01-02T19:39:56.095Z,1.35
2019-01-02T19:42:27.292Z,1.34
2019-01-02T19:45:00.225Z,1.27
2019-01-02T19:47:30.814Z,1.22
2019-01-02T19:50:01.561Z,1.13
2019-01-02T19:52:32.066Z,1.03
2019-01-02T19:55:02.805Z,0.95
2019-01-02T19:57:33.214Z,0.92
2019-01-02T20:00:05.834Z,0.87
2019-01-02T20:02:37.338Z,0.81
2019-01-02T20:05:08.445Z,0.74
2019-01-02T20:07:39.291Z,0.67
2019-01-02T20:10:11.147Z,0.69
2019-01-02T20:12:43.451Z,0.72
2019-01-02T20:15:14.514Z,0.71
2019-01-02T20:17:47.413Z,0.80
2019-01-02T20:20:18.405Z,0.87
2019-01-02T20:22:49.490Z,0.79
2019-01-02T20:25:22.500Z,0.78
2019-01-02T20:27:53.294Z,0.74
2019-01-02T20:30:24.149Z,0.81
2019-01-02T20:32:55.427Z,0.71
2019-01-02T20:35:27.457Z,0.70
2019-01-02T20:37:59.518Z,0.68
2019-01-02T20:40:30.535Z,0.68
2019-01-02T20:43:01.367Z,0.63
2019-01-02T20:45:32.026Z,0.63
2019-01-02T20:48:02.534Z,0.56
2019-01-02T20:50:33.145Z,0.52
2019-01-02T20:53:03.548Z,0.52
2019-01-02T20:55:34.251Z,0.50
2019-01-02T20:58:04.868Z,0.48
2019-01-02T21:00:35.871Z,0.46
2019-01-02T21:03:06.307Z,0.49
2019-01-02T21:05:38.452Z,0.44
2019-01-02T21:08:10.552Z,0.42
2019-01-02T21:10:41.625Z,0.36
2019-01-02T21:13:14.470Z,0.36
2019-01-02T21:15:45.653Z,0.33
2019-01-02T21:18:18.470Z,0.29
2019-01-02T21:20:49.618Z,0.28
2019-01-02T21:23:20.598Z,0.27
2019-01-02T21:25:53.694Z,0.21
2019-01-02T21:28:24.122Z,0.15
2019-01-02T21:30:55.641Z,0.13
2019-01-02T21:33:27.720Z,0.10
2019-01-02T21:35:59.667Z,0.09
2019-01-02T21:38:30.750Z,0.06
2019-01-02T21:41:01.694Z,0.03
2019-01-02T21:43:32.766Z,0.05
2019-01-02T21:46:03.826Z,0.01
2019-01-02T21:48:34.296Z,0.01
2019-01-02T21:51:04.826Z,-0.03
2019-01-02T21:53:35.569Z,-0.06
2019-01-02T21:56:06.083Z,-0.09
2019-01-02T21:58:36.627Z,-0.09
2019-01-02T22:01:07.373Z,-0.16
2019-01-02T22:03:38.332Z,-0.19
2019-01-02T22:06:08.976Z,-0.17
2019-01-02T22:08:41.057Z,-0.18
2019-01-02T22:11:12.808Z,-0.16
2019-01-02T22:13:43.747Z,-0.11
2019-01-02T22:16:16.890Z,-0.09
2019-01-02T22:18:49.802Z,-0.04
2019-01-02T22:21:24.939Z,-0.07
2019-01-02T22:23:57.981Z,0.00
2019-01-02T22:26:29.019Z,0.01
2019-01-02T22:28:59.775Z,0.11
2019-01-02T22:31:30.595Z,0.07
2019-01-02T22:34:01.548Z,0.06
2019-01-02T22:36:32.210Z,0.15
2019-01-02T22:39:04.323Z,0.19
2019-01-02T22:41:36.973Z,0.20
2019-01-02T22:44:07.972Z,0.25
2019-01-02T22:46:41.053Z,0.16
2019-01-02T22:49:11.925Z,0.21
2019-01-02T22:51:43.043Z,0.22
2019-01-02T22:54:17.129Z,0.26
2019-01-02T22:56:50.069Z,0.30
2019-01-02T22:59:21.147Z,0.30
2019-01-02T23:01:59.086Z,0.30
2019-01-02T23:04:50.252Z,0.26
2019-01-02T23:07:43.828Z,0.32
2019-01-02T23:10:36.379Z,0.22
2019-01-02T23:13:36.914Z,0.15
2019-01-02T23:16:28.069Z,0.08
2019-01-02T23:19:19.988Z,-0.17
2019-01-02T23:22:11.994Z,-0.39
2019-01-02T23:25:01.530Z,-0.64
2019-01-02T23:28:09.925Z,-1.06
2019-01-02T23:31:04.957Z,-1.17
2019-01-02T23:34:05.807Z,-1.62
2019-01-02T23:36:53.452Z,-1.88
2019-01-02T23:39:43.219Z,-1.96
2019-01-02T23:42:41.635Z,-2.07
2019-01-02T23:45:44.072Z,-2.03
2019-01-02T23:48:22.895Z,-1.87
2019-01-02T23:51:12.729Z,-1.85
2019-01-02T23:54:02.409Z,-1.72
2019-01-02T23:56:53.152Z,-1.58
2019-01-02T23:59:41.570Z,-1.38
